sensor_id;sensor_type;location;lat;lon;timestamp;P1;durP1;ratioP1;P2;durP2;ratioP2
5805;SDS011;2929;50.810;8.342;2023-08-20T00:00:12;11.00;;;5.20;;
5805;SDS011;2929;50.810;8.342;2023-08-20T00:02:41;7.53;;;5.53;;
5805;SDS011;2929;50.810;8.342;2023-08-20T00:05:09;8.57;;;6.00;;
5805;SDS011;2929;50.810;8.342;2023-08-20T00:07:39;8.40;;;6.00;;
5805;SDS011;2929;50.810;8.342;2023-08-20T00:10:06;13.57;;;5.70;;
5805;SDS011;2929;50.810;8.342;2023-08-20T00:12:34;10.23;;;6.37;;
5805;SDS011;2929;50.810;8.342;2023-08-20T00:15:02;14.30;;;6.53;;
5805;SDS011;2929;50.810;8.342;2023-08-20T00:17:31;18.13;;;6.03;;
5805;SDS011;2929;50.810;8.342;2023-08-20T00:19:59;13.63;;;7.83;;
5805;SDS011;2929;50.810;8.342;2023-08-20T00:22:26;8.50;;;6.13;;
5805;SDS011;2929;50.810;8.342;2023-08-20T00:24:56;9.30;;;6.30;;
5805;SDS011;2929;50.810;8.342;2023-08-20T00:27:23;9.43;;;6.07;;
5805;SDS011;2929;50.810;8.342;2023-08-20T00:29:50;11.50;;;6.60;;
5805;SDS011;2929;50.810;8.342;2023-08-20T00:32:17;11.10;;;5.40;;
5805;SDS011;2929;50.810;8.342;2023-08-20T00:34:44;16.13;;;6.17;;
5805;SDS011;2929;50.810;8.342;2023-08-20T00:37:10;18.00;;;6.23;;
5805;SDS011;2929;50.810;8.342;2023-08-20T00:39:38;11.33;;;5.33;;
5805;SDS011;2929;50.810;8.342;2023-08-20T00:42:07;7.93;;;5.37;;
5805;SDS011;2929;50.810;8.342;2023-08-20T00:44:34;9.23;;;4.93;;
5805;SDS011;2929;50.810;8.342;2023-08-20T00:47:01;10.10;;;5.30;;
5805;SDS011;2929;50.810;8.342;2023-08-20T00:49:30;12.67;;;5.67;;
5805;SDS011;2929;50.810;8.342;2023-08-20T00:51:58;10.17;;;6.17;;
5805;SDS011;2929;50.810;8.342;2023-08-20T00:54:25;7.47;;;4.80;;
5805;SDS011;2929;50.810;8.342;2023-08-20T00:56:54;17.83;;;5.03;;
5805;SDS011;2929;50.810;8.342;2023-08-20T00:59:22;6.37;;;4.20;;
5805;SDS011;2929;50.810;8.342;2023-08-20T01:01:50;8.70;;;4.90;;
5805;SDS011;2929;50.810;8.342;2023-08-20T01:04:17;8.90;;;4.93;;
5805;SDS011;2929;50.810;8.342;2023-08-20T01:06:46;7.60;;;4.73;;
5805;SDS011;2929;50.810;8.342;2023-08-20T01:09:23;6.30;;;4.63;;
5805;SDS011;2929;50.810;8.342;2023-08-20T01:11:57;6.33;;;4.37;;
5805;SDS011;2929;50.810;8.342;2023-08-20T01:14:30;9.10;;;4.70;;
5805;SDS011;2929;50.810;8.342;2023-08-20T01:16:57;11.00;;;4.30;;
5805;SDS011;2929;50.810;8.342;2023-08-20T01:19:24;7.03;;;4.10;;
5805;SDS011;2929;50.810;8.342;2023-08-20T01:24:54;8.97;;;4.37;;
5805;SDS011;2929;50.810;8.342;2023-08-20T01:27:35;5.77;;;4.60;;
5805;SDS011;2929;50.810;8.342;2023-08-20T01:30:11;6.53;;;4.00;;
5805;SDS011;2929;50.810;8.342;2023-08-20T01:32:39;8.00;;;4.00;;
5805;SDS011;2929;50.810;8.342;2023-08-20T01:35:07;6.13;;;4.43;;
5805;SDS011;2929;50.810;8.342;2023-08-20T01:37:38;14.23;;;4.60;;
5805;SDS011;2929;50.810;8.342;2023-08-20T01:40:05;5.53;;;3.60;;
5805;SDS011;2929;50.810;8.342;2023-08-20T01:42:33;8.10;;;4.37;;
5805;SDS011;2929;50.810;8.342;2023-08-20T01:45:00;20.77;;;4.47;;
5805;SDS011;2929;50.810;8.342;2023-08-20T01:47:29;8.63;;;4.27;;
5805;SDS011;2929;50.810;8.342;2023-08-20T01:49:59;4.30;;;3.90;;
5805;SDS011;2929;50.810;8.342;2023-08-20T01:52:27;4.40;;;3.70;;
5805;SDS011;2929;50.810;8.342;2023-08-20T01:54:54;4.90;;;3.37;;
5805;SDS011;2929;50.810;8.342;2023-08-20T01:57:21;6.47;;;4.40;;
5805;SDS011;2929;50.810;8.342;2023-08-20T01:59:48;15.70;;;4.37;;
5805;SDS011;2929;50.810;8.342;2023-08-20T02:02:16;6.10;;;4.60;;
5805;SDS011;2929;50.810;8.342;2023-08-20T02:04:45;8.30;;;4.10;;
5805;SDS011;2929;50.810;8.342;2023-08-20T02:07:12;6.97;;;4.27;;
5805;SDS011;2929;50.810;8.342;2023-08-20T02:09:39;6.50;;;3.80;;
5805;SDS011;2929;50.810;8.342;2023-08-20T02:12:06;11.90;;;4.10;;
5805;SDS011;2929;50.810;8.342;2023-08-20T02:14:33;6.10;;;4.27;;
5805;SDS011;2929;50.810;8.342;2023-08-20T02:17:00;9.50;;;4.30;;
5805;SDS011;2929;50.810;8.342;2023-08-20T02:19:28;14.30;;;4.30;;
5805;SDS011;2929;50.810;8.342;2023-08-20T02:21:56;10.97;;;4.27;;
5805;SDS011;2929;50.810;8.342;2023-08-20T02:24:23;5.37;;;3.57;;
5805;SDS011;2929;50.810;8.342;2023-08-20T02:26:50;7.90;;;4.37;;
5805;SDS011;2929;50.810;8.342;2023-08-20T02:29:17;7.50;;;3.93;;
5805;SDS011;2929;50.810;8.342;2023-08-20T02:31:44;4.90;;;3.87;;
5805;SDS011;2929;50.810;8.342;2023-08-20T02:34:11;6.43;;;4.13;;
5805;SDS011;2929;50.810;8.342;2023-08-20T02:36:38;6.93;;;3.90;;
5805;SDS011;2929;50.810;8.342;2023-08-20T02:39:06;10.47;;;4.00;;
5805;SDS011;2929;50.810;8.342;2023-08-20T02:41:34;10.40;;;4.17;;
5805;SDS011;2929;50.810;8.342;2023-08-20T02:44:01;7.20;;;3.70;;
5805;SDS011;2929;50.810;8.342;2023-08-20T02:46:28;6.13;;;3.90;;
5805;SDS011;2929;50.810;8.342;2023-08-20T02:48:56;5.17;;;4.13;;
5805;SDS011;2929;50.810;8.342;2023-08-20T02:51:23;6.10;;;4.30;;
5805;SDS011;2929;50.810;8.342;2023-08-20T02:53:50;6.37;;;3.60;;
5805;SDS011;2929;50.810;8.342;2023-08-20T02:56:18;5.73;;;3.73;;
5805;SDS011;2929;50.810;8.342;2023-08-20T02:58:45;5.13;;;3.23;;
5805;SDS011;2929;50.810;8.342;2023-08-20T03:01:19;7.30;;;3.30;;
5805;SDS011;2929;50.810;8.342;2023-08-20T03:03:46;6.50;;;3.07;;
5805;SDS011;2929;50.810;8.342;2023-08-20T03:06:14;8.60;;;3.30;;
5805;SDS011;2929;50.810;8.342;2023-08-20T03:08:41;4.90;;;3.67;;
5805;SDS011;2929;50.810;8.342;2023-08-20T03:11:08;4.97;;;2.90;;
5805;SDS011;2929;50.810;8.342;2023-08-20T03:13:36;7.27;;;3.43;;
5805;SDS011;2929;50.810;8.342;2023-08-20T03:16:03;4.90;;;3.53;;
5805;SDS011;2929;50.810;8.342;2023-08-20T03:18:30;4.93;;;3.20;;
5805;SDS011;2929;50.810;8.342;2023-08-20T03:20:57;8.70;;;3.97;;
5805;SDS011;2929;50.810;8.342;2023-08-20T03:23:24;8.93;;;3.90;;
5805;SDS011;2929;50.810;8.342;2023-08-20T03:25:51;10.97;;;3.57;;
5805;SDS011;2929;50.810;8.342;2023-08-20T03:28:18;6.80;;;3.60;;
5805;SDS011;2929;50.810;8.342;2023-08-20T03:30:47;6.80;;;3.40;;
5805;SDS011;2929;50.810;8.342;2023-08-20T03:33:16;16.03;;;3.43;;
5805;SDS011;2929;50.810;8.342;2023-08-20T03:35:44;6.87;;;3.60;;
5805;SDS011;2929;50.810;8.342;2023-08-20T03:38:12;12.20;;;3.90;;
5805;SDS011;2929;50.810;8.342;2023-08-20T03:40:39;5.37;;;2.90;;
5805;SDS011;2929;50.810;8.342;2023-08-20T03:43:09;5.73;;;2.90;;
5805;SDS011;2929;50.810;8.342;2023-08-20T03:45:36;5.33;;;3.33;;
5805;SDS011;2929;50.810;8.342;2023-08-20T03:48:04;8.23;;;3.60;;
5805;SDS011;2929;50.810;8.342;2023-08-20T03:50:31;3.90;;;3.23;;
5805;SDS011;2929;50.810;8.342;2023-08-20T03:52:58;5.10;;;3.50;;
5805;SDS011;2929;50.810;8.342;2023-08-20T03:55:25;9.83;;;3.07;;
5805;SDS011;2929;50.810;8.342;2023-08-20T03:57:52;11.90;;;3.40;;
5805;SDS011;2929;50.810;8.342;2023-08-20T04:00:19;4.57;;;2.90;;
5805;SDS011;2929;50.810;8.342;2023-08-20T04:02:46;9.83;;;3.77;;
5805;SDS011;2929;50.810;8.342;2023-08-20T04:05:15;11.63;;;2.93;;
5805;SDS011;2929;50.810;8.342;2023-08-20T04:07:42;11.90;;;4.60;;
5805;SDS011;2929;50.810;8.342;2023-08-20T04:10:09;8.50;;;3.37;;
5805;SDS011;2929;50.810;8.342;2023-08-20T04:12:35;4.10;;;3.17;;
5805;SDS011;2929;50.810;8.342;2023-08-20T04:15:03;4.30;;;2.90;;
5805;SDS011;2929;50.810;8.342;2023-08-20T04:17:31;5.27;;;3.00;;
5805;SDS011;2929;50.810;8.342;2023-08-20T04:19:59;8.80;;;3.40;;
5805;SDS011;2929;50.810;8.342;2023-08-20T04:22:27;13.93;;;3.00;;
5805;SDS011;2929;50.810;8.342;2023-08-20T04:24:56;10.43;;;3.40;;
5805;SDS011;2929;50.810;8.342;2023-08-20T04:27:24;6.27;;;3.73;;
5805;SDS011;2929;50.810;8.342;2023-08-20T04:29:51;5.60;;;2.87;;
5805;SDS011;2929;50.810;8.342;2023-08-20T04:32:19;7.13;;;3.53;;
5805;SDS011;2929;50.810;8.342;2023-08-20T04:34:46;8.37;;;4.77;;
5805;SDS011;2929;50.810;8.342;2023-08-20T04:37:14;4.53;;;2.93;;
5805;SDS011;2929;50.810;8.342;2023-08-20T04:39:43;5.50;;;2.93;;
5805;SDS011;2929;50.810;8.342;2023-08-20T04:42:10;3.83;;;3.17;;
5805;SDS011;2929;50.810;8.342;2023-08-20T04:44:37;9.87;;;3.93;;
5805;SDS011;2929;50.810;8.342;2023-08-20T04:47:03;8.00;;;3.93;;
5805;SDS011;2929;50.810;8.342;2023-08-20T04:49:32;9.53;;;3.13;;
5805;SDS011;2929;50.810;8.342;2023-08-20T04:52:00;7.87;;;3.43;;
5805;SDS011;2929;50.810;8.342;2023-08-20T04:54:29;6.53;;;3.60;;
5805;SDS011;2929;50.810;8.342;2023-08-20T04:56:57;4.60;;;3.60;;
5805;SDS011;2929;50.810;8.342;2023-08-20T04:59:25;5.03;;;3.50;;
5805;SDS011;2929;50.810;8.342;2023-08-20T05:01:52;6.10;;;2.83;;
5805;SDS011;2929;50.810;8.342;2023-08-20T05:04:34;8.93;;;3.50;;
5805;SDS011;2929;50.810;8.342;2023-08-20T05:07:01;7.90;;;3.37;;
5805;SDS011;2929;50.810;8.342;2023-08-20T05:09:28;9.27;;;3.97;;
5805;SDS011;2929;50.810;8.342;2023-08-20T05:11:55;7.30;;;3.40;;
5805;SDS011;2929;50.810;8.342;2023-08-20T05:14:24;6.83;;;3.70;;
5805;SDS011;2929;50.810;8.342;2023-08-20T05:16:52;6.37;;;3.30;;
5805;SDS011;2929;50.810;8.342;2023-08-20T05:19:18;5.10;;;3.63;;
5805;SDS011;2929;50.810;8.342;2023-08-20T05:21:45;5.97;;;3.53;;
5805;SDS011;2929;50.810;8.342;2023-08-20T05:24:12;8.00;;;3.23;;
5805;SDS011;2929;50.810;8.342;2023-08-20T05:26:39;7.77;;;4.00;;
5805;SDS011;2929;50.810;8.342;2023-08-20T05:29:06;4.10;;;3.30;;
5805;SDS011;2929;50.810;8.342;2023-08-20T05:31:34;5.50;;;3.33;;
5805;SDS011;2929;50.810;8.342;2023-08-20T05:34:01;4.13;;;3.10;;
5805;SDS011;2929;50.810;8.342;2023-08-20T05:36:29;5.13;;;3.60;;
5805;SDS011;2929;50.810;8.342;2023-08-20T05:38:56;4.57;;;3.67;;
5805;SDS011;2929;50.810;8.342;2023-08-20T05:41:24;11.27;;;3.97;;
5805;SDS011;2929;50.810;8.342;2023-08-20T05:43:51;5.90;;;3.60;;
5805;SDS011;2929;50.810;8.342;2023-08-20T05:46:18;4.77;;;3.90;;
5805;SDS011;2929;50.810;8.342;2023-08-20T05:48:46;5.93;;;3.07;;
5805;SDS011;2929;50.810;8.342;2023-08-20T05:51:13;7.00;;;3.77;;
5805;SDS011;2929;50.810;8.342;2023-08-20T05:53:40;7.67;;;4.00;;
5805;SDS011;2929;50.810;8.342;2023-08-20T05:56:07;5.10;;;4.27;;
5805;SDS011;2929;50.810;8.342;2023-08-20T05:58:35;3.73;;;3.43;;
5805;SDS011;2929;50.810;8.342;2023-08-20T06:01:02;8.90;;;4.53;;
5805;SDS011;2929;50.810;8.342;2023-08-20T06:03:29;9.10;;;4.47;;
5805;SDS011;2929;50.810;8.342;2023-08-20T06:05:57;5.63;;;4.20;;
5805;SDS011;2929;50.810;8.342;2023-08-20T06:08:24;8.23;;;4.13;;
5805;SDS011;2929;50.810;8.342;2023-08-20T06:10:51;11.07;;;4.20;;
5805;SDS011;2929;50.810;8.342;2023-08-20T06:13:18;9.20;;;4.70;;
5805;SDS011;2929;50.810;8.342;2023-08-20T06:15:45;8.30;;;4.47;;
5805;SDS011;2929;50.810;8.342;2023-08-20T06:18:12;4.27;;;3.67;;
5805;SDS011;2929;50.810;8.342;2023-08-20T06:20:39;10.23;;;3.97;;
5805;SDS011;2929;50.810;8.342;2023-08-20T06:23:08;4.53;;;3.77;;
5805;SDS011;2929;50.810;8.342;2023-08-20T06:25:35;5.90;;;3.43;;
5805;SDS011;2929;50.810;8.342;2023-08-20T06:28:02;7.70;;;4.70;;
5805;SDS011;2929;50.810;8.342;2023-08-20T06:30:30;7.53;;;3.80;;
5805;SDS011;2929;50.810;8.342;2023-08-20T06:32:56;12.93;;;4.30;;
5805;SDS011;2929;50.810;8.342;2023-08-20T06:35:23;4.97;;;4.00;;
5805;SDS011;2929;50.810;8.342;2023-08-20T06:37:50;11.23;;;3.67;;
5805;SDS011;2929;50.810;8.342;2023-08-20T06:40:19;6.10;;;4.60;;
5805;SDS011;2929;50.810;8.342;2023-08-20T06:42:45;6.17;;;4.03;;
5805;SDS011;2929;50.810;8.342;2023-08-20T06:45:13;6.20;;;4.90;;
5805;SDS011;2929;50.810;8.342;2023-08-20T06:47:40;8.50;;;4.80;;
5805;SDS011;2929;50.810;8.342;2023-08-20T06:50:07;9.67;;;5.40;;
5805;SDS011;2929;50.810;8.342;2023-08-20T06:52:34;5.20;;;4.40;;
5805;SDS011;2929;50.810;8.342;2023-08-20T06:55:01;9.27;;;4.97;;
5805;SDS011;2929;50.810;8.342;2023-08-20T06:57:30;5.63;;;5.13;;
5805;SDS011;2929;50.810;8.342;2023-08-20T06:59:58;10.83;;;5.10;;
5805;SDS011;2929;50.810;8.342;2023-08-20T07:02:25;5.73;;;5.20;;
5805;SDS011;2929;50.810;8.342;2023-08-20T07:04:51;9.27;;;5.77;;
5805;SDS011;2929;50.810;8.342;2023-08-20T07:07:18;11.87;;;4.87;;
5805;SDS011;2929;50.810;8.342;2023-08-20T07:09:45;9.97;;;5.90;;
5805;SDS011;2929;50.810;8.342;2023-08-20T07:12:12;11.23;;;7.10;;
5805;SDS011;2929;50.810;8.342;2023-08-20T07:14:40;12.43;;;6.63;;
5805;SDS011;2929;50.810;8.342;2023-08-20T07:17:07;8.33;;;5.97;;
5805;SDS011;2929;50.810;8.342;2023-08-20T07:19:36;7.73;;;5.50;;
5805;SDS011;2929;50.810;8.342;2023-08-20T07:22:03;7.73;;;6.83;;
5805;SDS011;2929;50.810;8.342;2023-08-20T07:24:31;10.80;;;7.40;;
5805;SDS011;2929;50.810;8.342;2023-08-20T07:27:00;12.33;;;8.70;;
5805;SDS011;2929;50.810;8.342;2023-08-20T07:29:29;20.80;;;11.97;;
5805;SDS011;2929;50.810;8.342;2023-08-20T07:31:57;14.37;;;11.57;;
5805;SDS011;2929;50.810;8.342;2023-08-20T07:34:28;13.57;;;11.80;;
5805;SDS011;2929;50.810;8.342;2023-08-20T07:36:55;16.73;;;12.50;;
5805;SDS011;2929;50.810;8.342;2023-08-20T07:39:23;19.20;;;12.70;;
5805;SDS011;2929;50.810;8.342;2023-08-20T07:41:50;18.30;;;12.63;;
5805;SDS011;2929;50.810;8.342;2023-08-20T07:44:16;19.00;;;13.27;;
5805;SDS011;2929;50.810;8.342;2023-08-20T07:46:43;17.43;;;12.50;;
5805;SDS011;2929;50.810;8.342;2023-08-20T07:49:12;24.57;;;14.70;;
5805;SDS011;2929;50.810;8.342;2023-08-20T07:51:39;20.37;;;15.13;;
5805;SDS011;2929;50.810;8.342;2023-08-20T07:54:06;21.93;;;14.10;;
5805;SDS011;2929;50.810;8.342;2023-08-20T07:56:32;18.03;;;12.60;;
5805;SDS011;2929;50.810;8.342;2023-08-20T07:58:59;21.50;;;14.83;;
5805;SDS011;2929;50.810;8.342;2023-08-20T08:01:26;20.27;;;14.87;;
5805;SDS011;2929;50.810;8.342;2023-08-20T08:03:53;21.00;;;15.20;;
5805;SDS011;2929;50.810;8.342;2023-08-20T08:06:21;21.00;;;14.30;;
5805;SDS011;2929;50.810;8.342;2023-08-20T08:08:49;20.47;;;15.00;;
5805;SDS011;2929;50.810;8.342;2023-08-20T08:11:16;24.47;;;15.30;;
5805;SDS011;2929;50.810;8.342;2023-08-20T08:13:43;22.33;;;15.30;;
5805;SDS011;2929;50.810;8.342;2023-08-20T08:16:10;20.73;;;14.83;;
5805;SDS011;2929;50.810;8.342;2023-08-20T08:18:37;21.70;;;14.73;;
5805;SDS011;2929;50.810;8.342;2023-08-20T08:21:03;27.93;;;15.80;;
5805;SDS011;2929;50.810;8.342;2023-08-20T08:23:32;21.60;;;14.93;;
5805;SDS011;2929;50.810;8.342;2023-08-20T08:25:59;23.33;;;15.70;;
5805;SDS011;2929;50.810;8.342;2023-08-20T08:28:26;20.43;;;16.33;;
5805;SDS011;2929;50.810;8.342;2023-08-20T08:30:52;21.87;;;16.00;;
5805;SDS011;2929;50.810;8.342;2023-08-20T08:33:19;22.83;;;16.63;;
5805;SDS011;2929;50.810;8.342;2023-08-20T08:35:46;24.90;;;17.83;;
5805;SDS011;2929;50.810;8.342;2023-08-20T08:38:13;25.93;;;16.50;;
5805;SDS011;2929;50.810;8.342;2023-08-20T08:40:41;26.80;;;18.03;;
5805;SDS011;2929;50.810;8.342;2023-08-20T08:43:10;19.30;;;15.47;;
5805;SDS011;2929;50.810;8.342;2023-08-20T08:45:41;18.63;;;13.63;;
5805;SDS011;2929;50.810;8.342;2023-08-20T08:48:12;19.33;;;15.13;;
5805;SDS011;2929;50.810;8.342;2023-08-20T08:50:39;18.93;;;14.67;;
5805;SDS011;2929;50.810;8.342;2023-08-20T08:53:06;17.63;;;14.00;;
5805;SDS011;2929;50.810;8.342;2023-08-20T08:55:34;19.90;;;14.67;;
5805;SDS011;2929;50.810;8.342;2023-08-20T08:58:03;19.40;;;14.73;;
5805;SDS011;2929;50.810;8.342;2023-08-20T09:00:30;18.07;;;14.63;;
5805;SDS011;2929;50.810;8.342;2023-08-20T09:02:57;21.47;;;14.90;;
5805;SDS011;2929;50.810;8.342;2023-08-20T09:05:24;15.33;;;13.47;;
5805;SDS011;2929;50.810;8.342;2023-08-20T09:07:54;17.10;;;13.80;;
5805;SDS011;2929;50.810;8.342;2023-08-20T09:10:25;18.13;;;12.80;;
5805;SDS011;2929;50.810;8.342;2023-08-20T09:12:52;13.80;;;12.03;;
5805;SDS011;2929;50.810;8.342;2023-08-20T09:15:23;12.63;;;11.07;;
5805;SDS011;2929;50.810;8.342;2023-08-20T09:17:59;17.80;;;12.63;;
5805;SDS011;2929;50.810;8.342;2023-08-20T09:20:33;13.17;;;11.40;;
5805;SDS011;2929;50.810;8.342;2023-08-20T09:23:00;12.80;;;10.97;;
5805;SDS011;2929;50.810;8.342;2023-08-20T09:25:27;12.57;;;10.30;;
5805;SDS011;2929;50.810;8.342;2023-08-20T09:27:54;11.30;;;8.97;;
5805;SDS011;2929;50.810;8.342;2023-08-20T09:30:22;11.83;;;9.33;;
5805;SDS011;2929;50.810;8.342;2023-08-20T09:33:02;12.43;;;11.13;;
5805;SDS011;2929;50.810;8.342;2023-08-20T09:35:30;13.80;;;10.10;;
5805;SDS011;2929;50.810;8.342;2023-08-20T09:38:00;11.37;;;10.17;;
5805;SDS011;2929;50.810;8.342;2023-08-20T09:40:30;12.13;;;10.40;;
5805;SDS011;2929;50.810;8.342;2023-08-20T09:42:57;13.87;;;10.60;;
5805;SDS011;2929;50.810;8.342;2023-08-20T09:45:26;10.37;;;9.23;;
5805;SDS011;2929;50.810;8.342;2023-08-20T09:47:55;12.73;;;10.40;;
5805;SDS011;2929;50.810;8.342;2023-08-20T09:50:24;9.90;;;8.90;;
5805;SDS011;2929;50.810;8.342;2023-08-20T09:52:55;9.83;;;8.67;;
5805;SDS011;2929;50.810;8.342;2023-08-20T09:55:30;10.03;;;8.30;;
5805;SDS011;2929;50.810;8.342;2023-08-20T09:58:00;9.93;;;8.93;;
5805;SDS011;2929;50.810;8.342;2023-08-20T10:00:29;10.23;;;9.03;;
5805;SDS011;2929;50.810;8.342;2023-08-20T10:02:57;11.80;;;9.33;;
5805;SDS011;2929;50.810;8.342;2023-08-20T10:05:25;10.10;;;8.47;;
5805;SDS011;2929;50.810;8.342;2023-08-20T10:07:53;10.83;;;9.73;;
5805;SDS011;2929;50.810;8.342;2023-08-20T10:10:21;9.97;;;8.97;;
5805;SDS011;2929;50.810;8.342;2023-08-20T10:12:48;9.53;;;8.57;;
5805;SDS011;2929;50.810;8.342;2023-08-20T10:15:15;10.47;;;8.00;;
5805;SDS011;2929;50.810;8.342;2023-08-20T10:17:44;9.47;;;7.00;;
5805;SDS011;2929;50.810;8.342;2023-08-20T10:20:13;7.70;;;6.70;;
5805;SDS011;2929;50.810;8.342;2023-08-20T10:22:41;8.07;;;7.20;;
5805;SDS011;2929;50.810;8.342;2023-08-20T10:25:10;11.87;;;7.13;;
5805;SDS011;2929;50.810;8.342;2023-08-20T10:27:38;8.07;;;7.17;;
5805;SDS011;2929;50.810;8.342;2023-08-20T10:30:08;8.77;;;7.87;;
5805;SDS011;2929;50.810;8.342;2023-08-20T10:32:45;8.67;;;7.37;;
5805;SDS011;2929;50.810;8.342;2023-08-20T10:35:14;10.40;;;7.20;;
5805;SDS011;2929;50.810;8.342;2023-08-20T10:40:47;8.87;;;7.30;;
5805;SDS011;2929;50.810;8.342;2023-08-20T10:43:27;8.60;;;7.70;;
5805;SDS011;2929;50.810;8.342;2023-08-20T10:46:04;8.63;;;7.73;;
5805;SDS011;2929;50.810;8.342;2023-08-20T10:48:34;9.80;;;7.63;;
5805;SDS011;2929;50.810;8.342;2023-08-20T10:51:06;8.40;;;7.60;;
5805;SDS011;2929;50.810;8.342;2023-08-20T10:53:34;7.87;;;6.80;;
5805;SDS011;2929;50.810;8.342;2023-08-20T10:56:11;8.20;;;7.40;;
5805;SDS011;2929;50.810;8.342;2023-08-20T10:58:44;7.93;;;6.93;;
5805;SDS011;2929;50.810;8.342;2023-08-20T11:01:15;7.80;;;7.10;;
5805;SDS011;2929;50.810;8.342;2023-08-20T11:03:48;8.10;;;7.30;;
5805;SDS011;2929;50.810;8.342;2023-08-20T11:06:17;11.17;;;7.87;;
5805;SDS011;2929;50.810;8.342;2023-08-20T11:08:44;8.90;;;7.40;;
5805;SDS011;2929;50.810;8.342;2023-08-20T11:11:13;9.20;;;6.90;;
5805;SDS011;2929;50.810;8.342;2023-08-20T11:13:40;8.47;;;7.30;;
5805;SDS011;2929;50.810;8.342;2023-08-20T11:16:08;9.07;;;7.50;;
5805;SDS011;2929;50.810;8.342;2023-08-20T11:18:35;9.67;;;7.33;;
5805;SDS011;2929;50.810;8.342;2023-08-20T11:21:04;8.60;;;7.70;;
5805;SDS011;2929;50.810;8.342;2023-08-20T11:23:31;8.87;;;6.73;;
5805;SDS011;2929;50.810;8.342;2023-08-20T11:25:58;8.40;;;6.57;;
5805;SDS011;2929;50.810;8.342;2023-08-20T11:28:26;7.97;;;6.70;;
5805;SDS011;2929;50.810;8.342;2023-08-20T11:30:53;7.93;;;7.13;;
5805;SDS011;2929;50.810;8.342;2023-08-20T11:33:21;8.90;;;7.50;;
5805;SDS011;2929;50.810;8.342;2023-08-20T11:35:49;7.50;;;6.47;;
5805;SDS011;2929;50.810;8.342;2023-08-20T11:38:17;7.60;;;6.90;;
5805;SDS011;2929;50.810;8.342;2023-08-20T11:40:46;9.03;;;7.00;;
5805;SDS011;2929;50.810;8.342;2023-08-20T11:43:13;7.63;;;6.83;;
5805;SDS011;2929;50.810;8.342;2023-08-20T11:45:44;6.53;;;5.90;;
5805;SDS011;2929;50.810;8.342;2023-08-20T11:48:12;7.70;;;7.00;;
5805;SDS011;2929;50.810;8.342;2023-08-20T11:50:39;6.67;;;6.03;;
5805;SDS011;2929;50.810;8.342;2023-08-20T11:53:07;7.00;;;6.00;;
5805;SDS011;2929;50.810;8.342;2023-08-20T11:55:37;6.30;;;5.70;;
5805;SDS011;2929;50.810;8.342;2023-08-20T11:58:05;6.37;;;5.40;;
5805;SDS011;2929;50.810;8.342;2023-08-20T12:00:35;8.93;;;6.03;;
5805;SDS011;2929;50.810;8.342;2023-08-20T12:03:03;6.80;;;6.20;;
5805;SDS011;2929;50.810;8.342;2023-08-20T12:05:31;5.90;;;5.30;;
5805;SDS011;2929;50.810;8.342;2023-08-20T12:07:58;5.77;;;5.27;;
5805;SDS011;2929;50.810;8.342;2023-08-20T12:10:27;5.60;;;5.03;;
5805;SDS011;2929;50.810;8.342;2023-08-20T12:12:56;5.83;;;5.13;;
5805;SDS011;2929;50.810;8.342;2023-08-20T12:15:25;5.40;;;4.33;;
5805;SDS011;2929;50.810;8.342;2023-08-20T12:17:55;6.13;;;4.33;;
5805;SDS011;2929;50.810;8.342;2023-08-20T12:20:23;4.10;;;3.70;;
5805;SDS011;2929;50.810;8.342;2023-08-20T12:22:53;4.60;;;4.20;;
5805;SDS011;2929;50.810;8.342;2023-08-20T12:25:20;6.40;;;4.47;;
5805;SDS011;2929;50.810;8.342;2023-08-20T12:27:46;4.40;;;4.00;;
5805;SDS011;2929;50.810;8.342;2023-08-20T12:30:15;4.83;;;4.53;;
5805;SDS011;2929;50.810;8.342;2023-08-20T12:32:42;6.20;;;3.93;;
5805;SDS011;2929;50.810;8.342;2023-08-20T12:35:09;3.83;;;3.53;;
5805;SDS011;2929;50.810;8.342;2023-08-20T12:37:36;3.97;;;3.20;;
5805;SDS011;2929;50.810;8.342;2023-08-20T12:40:03;5.60;;;3.33;;
5805;SDS011;2929;50.810;8.342;2023-08-20T12:42:35;4.50;;;3.47;;
5805;SDS011;2929;50.810;8.342;2023-08-20T12:45:03;6.87;;;3.00;;
5805;SDS011;2929;50.810;8.342;2023-08-20T12:47:32;3.60;;;3.30;;
5805;SDS011;2929;50.810;8.342;2023-08-20T12:49:59;4.73;;;3.27;;
5805;SDS011;2929;50.810;8.342;2023-08-20T12:52:28;6.93;;;3.80;;
5805;SDS011;2929;50.810;8.342;2023-08-20T12:54:55;4.17;;;3.23;;
5805;SDS011;2929;50.810;8.342;2023-08-20T12:57:22;5.00;;;3.13;;
5805;SDS011;2929;50.810;8.342;2023-08-20T12:59:49;3.37;;;3.13;;
5805;SDS011;2929;50.810;8.342;2023-08-20T13:02:16;6.07;;;3.47;;
5805;SDS011;2929;50.810;8.342;2023-08-20T13:04:45;3.80;;;3.50;;
5805;SDS011;2929;50.810;8.342;2023-08-20T13:07:13;3.63;;;3.30;;
5805;SDS011;2929;50.810;8.342;2023-08-20T13:09:41;4.23;;;3.93;;
5805;SDS011;2929;50.810;8.342;2023-08-20T13:12:09;3.13;;;2.80;;
5805;SDS011;2929;50.810;8.342;2023-08-20T13:14:38;5.03;;;2.97;;
5805;SDS011;2929;50.810;8.342;2023-08-20T13:17:07;4.67;;;3.60;;
5805;SDS011;2929;50.810;8.342;2023-08-20T13:19:35;4.23;;;3.60;;
5805;SDS011;2929;50.810;8.342;2023-08-20T13:22:04;3.90;;;3.37;;
5805;SDS011;2929;50.810;8.342;2023-08-20T13:24:31;4.70;;;3.60;;
5805;SDS011;2929;50.810;8.342;2023-08-20T13:26:58;4.13;;;2.90;;
5805;SDS011;2929;50.810;8.342;2023-08-20T13:29:25;3.23;;;2.93;;
5805;SDS011;2929;50.810;8.342;2023-08-20T13:31:52;3.00;;;2.70;;
5805;SDS011;2929;50.810;8.342;2023-08-20T13:34:19;3.97;;;3.60;;
5805;SDS011;2929;50.810;8.342;2023-08-20T13:36:45;4.97;;;2.93;;
5805;SDS011;2929;50.810;8.342;2023-08-20T13:39:14;3.50;;;3.20;;
5805;SDS011;2929;50.810;8.342;2023-08-20T13:41:43;3.90;;;2.83;;
5805;SDS011;2929;50.810;8.342;2023-08-20T13:44:12;2.90;;;2.70;;
5805;SDS011;2929;50.810;8.342;2023-08-20T13:46:39;3.73;;;3.20;;
5805;SDS011;2929;50.810;8.342;2023-08-20T13:49:06;3.33;;;2.80;;
5805;SDS011;2929;50.810;8.342;2023-08-20T13:51:33;3.40;;;3.10;;
5805;SDS011;2929;50.810;8.342;2023-08-20T13:54:00;3.53;;;2.73;;
5805;SDS011;2929;50.810;8.342;2023-08-20T13:56:28;7.43;;;3.30;;
5805;SDS011;2929;50.810;8.342;2023-08-20T13:58:55;3.47;;;2.90;;
5805;SDS011;2929;50.810;8.342;2023-08-20T14:01:22;4.20;;;2.70;;
5805;SDS011;2929;50.810;8.342;2023-08-20T14:03:49;6.73;;;2.87;;
5805;SDS011;2929;50.810;8.342;2023-08-20T14:06:16;4.10;;;3.00;;
5805;SDS011;2929;50.810;8.342;2023-08-20T14:08:43;2.67;;;2.47;;
5805;SDS011;2929;50.810;8.342;2023-08-20T14:11:10;3.63;;;2.90;;
5805;SDS011;2929;50.810;8.342;2023-08-20T14:13:38;5.20;;;2.90;;
5805;SDS011;2929;50.810;8.342;2023-08-20T14:16:07;2.83;;;2.63;;
5805;SDS011;2929;50.810;8.342;2023-08-20T14:18:34;6.40;;;2.60;;
5805;SDS011;2929;50.810;8.342;2023-08-20T14:21:01;3.93;;;2.50;;
5805;SDS011;2929;50.810;8.342;2023-08-20T14:23:28;3.80;;;2.90;;
5805;SDS011;2929;50.810;8.342;2023-08-20T14:25:55;4.33;;;2.80;;
5805;SDS011;2929;50.810;8.342;2023-08-20T14:28:22;2.93;;;2.73;;
5805;SDS011;2929;50.810;8.342;2023-08-20T14:30:50;2.80;;;2.60;;
5805;SDS011;2929;50.810;8.342;2023-08-20T14:33:19;3.80;;;2.67;;
5805;SDS011;2929;50.810;8.342;2023-08-20T14:35:46;2.80;;;2.60;;
5805;SDS011;2929;50.810;8.342;2023-08-20T14:38:13;2.27;;;2.07;;
5805;SDS011;2929;50.810;8.342;2023-08-20T14:40:40;2.53;;;2.43;;
5805;SDS011;2929;50.810;8.342;2023-08-20T14:43:07;2.60;;;2.30;;
5805;SDS011;2929;50.810;8.342;2023-08-20T14:45:34;2.47;;;2.27;;
5805;SDS011;2929;50.810;8.342;2023-08-20T14:48:03;3.63;;;2.33;;
5805;SDS011;2929;50.810;8.342;2023-08-20T14:50:30;2.60;;;2.27;;
5805;SDS011;2929;50.810;8.342;2023-08-20T14:52:57;4.67;;;2.53;;
5805;SDS011;2929;50.810;8.342;2023-08-20T14:55:25;2.27;;;2.03;;
5805;SDS011;2929;50.810;8.342;2023-08-20T14:57:52;3.80;;;2.00;;
5805;SDS011;2929;50.810;8.342;2023-08-20T15:00:19;2.13;;;1.87;;
5805;SDS011;2929;50.810;8.342;2023-08-20T15:02:48;2.73;;;2.20;;
5805;SDS011;2929;50.810;8.342;2023-08-20T15:05:17;2.43;;;2.23;;
5805;SDS011;2929;50.810;8.342;2023-08-20T15:07:44;2.40;;;2.20;;
5805;SDS011;2929;50.810;8.342;2023-08-20T15:10:11;3.93;;;2.20;;
5805;SDS011;2929;50.810;8.342;2023-08-20T15:12:39;4.67;;;2.27;;
5805;SDS011;2929;50.810;8.342;2023-08-20T15:15:06;1.93;;;1.83;;
5805;SDS011;2929;50.810;8.342;2023-08-20T15:17:34;3.73;;;2.30;;
5805;SDS011;2929;50.810;8.342;2023-08-20T15:20:02;2.00;;;1.80;;